createdAt,value
2023-10-07T00:00:32.993Z,60.31
2023-10-07T00:03:01.719Z,60.63
2023-10-07T00:05:33.725Z,60.27
2023-10-07T00:08:05.108Z,60.57
2023-10-07T00:10:38.469Z,60.70
2023-10-07T00:13:10.691Z,60.60
2023-10-07T00:15:40.753Z,60.65
2023-10-07T00:18:12.884Z,60.65
2023-10-07T00:20:43.245Z,60.62
2023-10-07T00:23:13.181Z,60.95
2023-10-07T00:25:41.883Z,60.64
2023-10-07T00:28:19.779Z,60.95
2023-10-07T00:30:50.617Z,60.80
2023-10-07T00:33:23.221Z,60.93
2023-10-07T00:35:54.664Z,61.02
2023-10-07T00:38:25.681Z,60.89
2023-10-07T00:40:58.518Z,60.99
2023-10-07T00:43:29.224Z,61.01
2023-10-07T00:46:07.581Z,61.11
2023-10-07T00:48:49.600Z,61.12
2023-10-07T00:51:25.414Z,61.09
2023-10-07T00:54:02.160Z,61.03
2023-10-07T00:56:35.497Z,61.50
2023-10-07T00:59:09.017Z,61.38
2023-10-07T01:01:38.776Z,60.89
2023-10-07T01:04:08.106Z,61.42
2023-10-07T01:06:40.350Z,61.51
2023-10-07T01:09:16.050Z,61.32
2023-10-07T01:11:47.786Z,61.85
2023-10-07T01:14:15.911Z,61.67
2023-10-07T01:16:45.461Z,61.69
2023-10-07T01:19:31.516Z,62.01
2023-10-07T01:22:10.296Z,61.85
2023-10-07T01:24:46.980Z,62.08
2023-10-07T01:27:22.633Z,62.01
2023-10-07T01:29:52.064Z,61.99
2023-10-07T01:32:21.118Z,62.25
2023-10-07T01:34:54.552Z,61.98
2023-10-07T01:37:23.704Z,62.03
2023-10-07T01:39:55.019Z,62.04
2023-10-07T01:42:27.630Z,62.05
2023-10-07T01:45:12.419Z,62.40
2023-10-07T01:47:41.329Z,62.20
2023-10-07T01:50:13.433Z,62.67
2023-10-07T01:52:46.395Z,62.42
2023-10-07T01:55:16.747Z,62.51
2023-10-07T01:57:46.202Z,62.75
2023-10-07T02:00:15.005Z,62.63
2023-10-07T02:02:50.766Z,62.81
2023-10-07T02:05:26.682Z,62.64
2023-10-07T02:07:56.153Z,62.77
2023-10-07T02:10:27.550Z,62.82
2023-10-07T02:12:56.071Z,62.94
2023-10-07T02:15:24.086Z,62.91
2023-10-07T02:17:58.233Z,62.95
2023-10-07T02:20:27.033Z,62.83
2023-10-07T02:22:54.964Z,62.90
2023-10-07T02:25:28.784Z,62.66
2023-10-07T02:27:57.996Z,62.79
2023-10-07T02:30:26.893Z,62.72
2023-10-07T02:32:55.695Z,62.80
2023-10-07T02:35:32.009Z,62.68
2023-10-07T02:38:05.061Z,62.80
2023-10-07T02:40:49.943Z,62.90
2023-10-07T02:43:19.652Z,62.78
2023-10-07T02:45:47.786Z,62.81
2023-10-07T02:48:15.685Z,62.77
2023-10-07T02:50:44.561Z,62.82
2023-10-07T02:53:15.860Z,62.75
2023-10-07T02:55:56.121Z,62.88
2023-10-07T02:58:34.110Z,63.04
2023-10-07T03:01:12.668Z,62.83
2023-10-07T03:03:42.271Z,62.91
2023-10-07T03:06:10.565Z,62.78
2023-10-07T03:08:50.640Z,62.79
2023-10-07T03:11:23.724Z,62.92
2023-10-07T03:14:07.619Z,63.05
2023-10-07T03:16:45.629Z,63.00
2023-10-07T03:19:22.038Z,63.51
2023-10-07T03:22:11.110Z,63.08
2023-10-07T03:24:47.369Z,63.13
2023-10-07T03:27:23.933Z,62.82
2023-10-07T03:30:13.497Z,63.23
2023-10-07T03:32:57.320Z,63.14
2023-10-07T03:35:59.644Z,63.23
2023-10-07T03:38:27.885Z,63.16
2023-10-07T03:40:56.353Z,63.33
2023-10-07T03:43:27.458Z,63.22
2023-10-07T03:45:58.284Z,63.32
2023-10-07T03:48:32.570Z,63.24
2023-10-07T03:51:06.019Z,63.26
2023-10-07T03:53:34.905Z,63.46
2023-10-07T03:56:07.717Z,63.37
2023-10-07T03:58:39.591Z,63.36
2023-10-07T04:01:18.091Z,63.31
2023-10-07T04:03:48.569Z,63.26
2023-10-07T04:06:17.669Z,63.25
2023-10-07T04:08:46.918Z,63.40
2023-10-07T04:11:17.421Z,63.22
2023-10-07T04:13:54.921Z,63.37
2023-10-07T04:16:30.598Z,63.42
2023-10-07T04:19:08.514Z,63.28
2023-10-07T04:21:40.723Z,63.31
2023-10-07T04:24:11.522Z,63.35
2023-10-07T04:26:41.501Z,63.24
2023-10-07T04:29:16.687Z,63.13
2023-10-07T04:31:52.724Z,63.34
2023-10-07T04:34:22.432Z,63.43
2023-10-07T04:37:04.502Z,63.17
2023-10-07T04:39:40.399Z,63.19
2023-10-07T04:42:08.541Z,63.18
2023-10-07T04:44:53.930Z,63.00
2023-10-07T04:47:36.413Z,63.42
2023-10-07T04:50:16.159Z,63.38
2023-10-07T04:52:51.692Z,63.35
2023-10-07T04:55:21.430Z,63.30
2023-10-07T04:57:58.660Z,63.27
2023-10-07T05:00:29.727Z,63.40
2023-10-07T05:03:00.675Z,63.42
2023-10-07T05:05:30.943Z,63.38
2023-10-07T05:08:00.256Z,63.42
2023-10-07T05:10:31.296Z,63.35
2023-10-07T05:13:02.530Z,63.09
2023-10-07T05:15:29.417Z,63.30
2023-10-07T05:18:02.912Z,63.41
2023-10-07T05:20:30.432Z,63.49
2023-10-07T05:23:01.793Z,63.40
2023-10-07T05:25:30.251Z,63.51
2023-10-07T05:27:58.673Z,63.35
2023-10-07T05:30:28.255Z,63.38
2023-10-07T05:32:56.507Z,63.50
2023-10-07T05:35:28.512Z,63.31
2023-10-07T05:38:04.440Z,63.36
2023-10-07T05:40:34.828Z,63.44
2023-10-07T05:43:02.697Z,63.49
2023-10-07T05:45:31.333Z,63.67
2023-10-07T05:47:59.294Z,63.58
2023-10-07T05:50:29.987Z,63.67
2023-10-07T05:52:58.819Z,63.69
2023-10-07T05:55:26.635Z,63.65
2023-10-07T05:57:55.049Z,63.60
2023-10-07T06:00:26.034Z,63.73
2023-10-07T06:02:54.687Z,63.58
2023-10-07T06:05:29.071Z,63.64
2023-10-07T06:07:59.330Z,63.68
2023-10-07T06:10:27.394Z,63.59
2023-10-07T06:12:55.898Z,63.70
2023-10-07T06:15:24.785Z,63.68
2023-10-07T06:17:52.979Z,63.70
2023-10-07T06:20:28.041Z,63.86
2023-10-07T06:22:57.478Z,63.72
2023-10-07T06:25:32.685Z,63.59
2023-10-07T06:28:01.015Z,63.70
2023-10-07T06:30:29.173Z,63.71
2023-10-07T06:32:57.755Z,63.63
2023-10-07T06:35:26.920Z,63.81
2023-10-07T06:37:58.707Z,63.86
2023-10-07T06:40:29.896Z,64.04
2023-10-07T06:43:00.217Z,64.12
2023-10-07T06:45:37.201Z,63.95
2023-10-07T06:48:10.114Z,63.94
2023-10-07T06:50:42.599Z,64.02
2023-10-07T06:53:13.030Z,63.81
2023-10-07T06:55:45.776Z,63.95
2023-10-07T06:58:16.150Z,64.05
2023-10-07T07:00:50.046Z,63.84
2023-10-07T07:03:20.666Z,63.97
2023-10-07T07:05:49.297Z,64.09
2023-10-07T07:08:24.444Z,63.91
2023-10-07T07:10:57.022Z,64.22
2023-10-07T07:13:29.136Z,64.04
2023-10-07T07:16:07.683Z,64.08
2023-10-07T07:18:41.651Z,64.40
2023-10-07T07:21:32.612Z,64.24
2023-10-07T07:23:59.889Z,64.12
2023-10-07T07:26:31.608Z,64.41
2023-10-07T07:29:00.134Z,64.42
2023-10-07T07:31:34.301Z,64.21
2023-10-07T07:34:14.763Z,64.33
2023-10-07T07:36:49.288Z,64.42
2023-10-07T07:39:21.332Z,64.11
2023-10-07T07:41:57.714Z,64.05
2023-10-07T07:44:34.990Z,64.08
2023-10-07T07:47:05.134Z,64.04
2023-10-07T07:49:34.361Z,64.23
2023-10-07T07:52:03.146Z,64.24
2023-10-07T07:54:31.238Z,64.08
2023-10-07T07:57:06.094Z,64.22
2023-10-07T07:59:34.547Z,64.34
2023-10-07T08:02:14.224Z,64.30
2023-10-07T08:04:47.625Z,64.20
2023-10-07T08:07:26.366Z,63.79
2023-10-07T08:09:55.026Z,63.77
2023-10-07T08:12:30.782Z,63.77
2023-10-07T08:15:00.778Z,63.53
2023-10-07T08:17:29.513Z,63.74
2023-10-07T08:19:59.801Z,63.49
2023-10-07T08:22:28.615Z,63.46
2023-10-07T08:25:02.651Z,63.47
2023-10-07T08:27:50.629Z,64.01
2023-10-07T08:30:32.222Z,63.73
2023-10-07T08:33:02.370Z,63.70
2023-10-07T08:35:30.218Z,63.81
2023-10-07T08:37:58.573Z,63.50
2023-10-07T08:40:29.873Z,63.57
2023-10-07T08:43:00.851Z,63.34
2023-10-07T08:45:30.592Z,63.42
2023-10-07T08:48:10.834Z,63.05
2023-10-07T08:50:43.858Z,62.65
2023-10-07T08:53:16.932Z,62.28
2023-10-07T08:55:47.888Z,61.91
2023-10-07T08:58:17.871Z,61.78
2023-10-07T09:00:48.730Z,62.11
2023-10-07T09:03:17.187Z,61.89
2023-10-07T09:05:46.498Z,61.67
2023-10-07T09:08:14.367Z,61.54
2023-10-07T09:10:47.099Z,61.20
2023-10-07T09:13:28.465Z,61.21
2023-10-07T09:16:00.961Z,60.55
2023-10-07T09:18:32.971Z,60.94
2023-10-07T09:21:08.239Z,60.64
2023-10-07T09:23:44.820Z,59.96
2023-10-07T09:26:18.262Z,60.09
2023-10-07T09:28:48.595Z,60.01
2023-10-07T09:31:18.476Z,60.12
2023-10-07T09:33:50.208Z,59.45
2023-10-07T09:36:34.461Z,59.26
2023-10-07T09:39:20.854Z,59.34
2023-10-07T09:42:04.495Z,59.41
2023-10-07T09:44:33.552Z,59.20
2023-10-07T09:47:12.494Z,59.08
2023-10-07T09:49:40.446Z,58.35
2023-10-07T09:52:18.040Z,58.37
2023-10-07T09:55:19.979Z,58.74
2023-10-07T09:58:01.786Z,58.24
2023-10-07T10:00:41.381Z,58.29
2023-10-07T10:03:47.023Z,58.77
2023-10-07T10:06:28.027Z,57.94
2023-10-07T10:08:59.532Z,57.64
2023-10-07T10:11:45.726Z,57.87
2023-10-07T10:14:23.457Z,57.11
2023-10-07T10:16:55.478Z,57.20
2023-10-07T10:19:29.904Z,57.19
2023-10-07T10:22:11.780Z,56.82
2023-10-07T10:24:45.503Z,56.59
2023-10-07T10:27:14.381Z,56.99
2023-10-07T10:29:54.311Z,56.88
2023-10-07T10:32:30.726Z,56.62
2023-10-07T10:35:03.765Z,56.06
2023-10-07T10:37:32.674Z,55.85
2023-10-07T10:40:07.173Z,55.84
2023-10-07T10:42:42.547Z,55.85
2023-10-07T10:45:19.586Z,55.77
2023-10-07T10:47:52.150Z,55.59
2023-10-07T10:50:21.553Z,55.74
2023-10-07T10:52:50.338Z,56.15
2023-10-07T10:55:18.278Z,55.82
2023-10-07T10:57:46.512Z,55.33
2023-10-07T11:00:20.809Z,55.18
2023-10-07T11:02:51.981Z,54.77
2023-10-07T11:05:22.009Z,54.53
2023-10-07T11:07:52.225Z,53.90
2023-10-07T11:10:23.758Z,53.85
2023-10-07T11:12:56.761Z,54.32
2023-10-07T11:15:27.119Z,53.41
2023-10-07T11:17:59.159Z,53.51
2023-10-07T11:20:34.039Z,54.20
2023-10-07T11:23:04.194Z,54.04
2023-10-07T11:25:34.928Z,53.07
2023-10-07T11:28:06.707Z,53.04
2023-10-07T11:30:45.392Z,52.97
2023-10-07T11:33:18.248Z,53.27
2023-10-07T11:35:57.881Z,53.29
2023-10-07T11:38:26.674Z,52.99
2023-10-07T11:40:54.780Z,53.03
2023-10-07T11:43:22.599Z,52.33
2023-10-07T11:45:51.710Z,52.87
2023-10-07T11:48:23.139Z,52.32
2023-10-07T11:50:51.115Z,52.38
2023-10-07T11:53:21.324Z,52.23
2023-10-07T11:55:49.474Z,52.77
2023-10-07T11:58:19.124Z,53.32
2023-10-07T12:00:47.822Z,52.61
2023-10-07T12:03:15.821Z,52.47
2023-10-07T12:05:48.013Z,52.12
2023-10-07T12:08:15.947Z,53.07
2023-10-07T12:10:44.341Z,51.90
2023-10-07T12:13:13.444Z,52.14
2023-10-07T12:15:53.670Z,51.74
2023-10-07T12:18:32.137Z,52.20
2023-10-07T12:21:02.596Z,52.43
2023-10-07T12:23:34.917Z,52.17
2023-10-07T12:26:03.456Z,52.34
2023-10-07T12:28:32.205Z,52.43
2023-10-07T12:31:00.670Z,52.47
2023-10-07T12:33:36.845Z,52.06
2023-10-07T12:36:13.051Z,51.80
2023-10-07T12:38:40.972Z,51.19
2023-10-07T12:41:09.847Z,51.79
2023-10-07T12:43:39.584Z,51.34
2023-10-07T12:46:10.638Z,51.08
2023-10-07T12:48:41.699Z,50.95
2023-10-07T12:51:13.054Z,50.55
2023-10-07T12:53:45.344Z,50.43
2023-10-07T12:56:15.135Z,50.90
2023-10-07T12:58:43.995Z,51.07
2023-10-07T13:01:14.473Z,50.79
2023-10-07T13:03:44.890Z,50.83
2023-10-07T13:06:16.785Z,51.13
2023-10-07T13:08:46.388Z,50.79
2023-10-07T13:11:15.145Z,51.31
2023-10-07T13:13:44.119Z,50.44
2023-10-07T13:16:12.626Z,49.95
2023-10-07T13:18:41.440Z,50.03
2023-10-07T13:21:15.013Z,50.19
2023-10-07T13:23:44.054Z,50.33
2023-10-07T13:26:13.385Z,50.16
2023-10-07T13:28:42.620Z,51.18
2023-10-07T13:31:15.404Z,50.27
2023-10-07T13:33:43.901Z,49.62
2023-10-07T13:36:11.843Z,49.83
2023-10-07T13:38:40.175Z,49.96
2023-10-07T13:41:08.823Z,50.19
2023-10-07T13:43:38.289Z,50.12
2023-10-07T13:46:12.251Z,50.91
2023-10-07T13:48:40.258Z,49.15
2023-10-07T13:51:08.233Z,48.92
2023-10-07T13:53:53.328Z,48.99
2023-10-07T13:56:34.598Z,49.42
2023-10-07T13:59:07.325Z,49.70
2023-10-07T14:01:35.341Z,49.61
2023-10-07T14:04:04.192Z,49.66
2023-10-07T14:06:35.460Z,49.57
2023-10-07T14:09:04.029Z,49.43
2023-10-07T14:11:33.219Z,49.42
2023-10-07T14:14:01.834Z,49.53
2023-10-07T14:16:31.252Z,48.79
2023-10-07T14:18:59.001Z,49.45
2023-10-07T14:21:28.228Z,48.79
2023-10-07T14:23:57.057Z,48.60
2023-10-07T14:26:26.156Z,49.04
2023-10-07T14:28:54.461Z,49.36
2023-10-07T14:31:23.502Z,49.22
2023-10-07T14:33:55.816Z,48.57
2023-10-07T14:36:23.807Z,48.79
2023-10-07T14:38:52.940Z,48.25
2023-10-07T14:41:21.516Z,48.63
2023-10-07T14:43:49.739Z,48.51
2023-10-07T14:46:17.817Z,48.42
2023-10-07T14:48:47.689Z,48.35
2023-10-07T14:51:19.015Z,48.46
2023-10-07T14:53:49.936Z,47.99
2023-10-07T14:56:23.319Z,48.46
2023-10-07T14:58:52.933Z,48.57
2023-10-07T15:01:23.852Z,47.93
2023-10-07T15:03:54.698Z,48.31
2023-10-07T15:06:24.194Z,48.72
2023-10-07T15:08:52.372Z,48.25
2023-10-07T15:11:21.688Z,48.45
2023-10-07T15:13:51.112Z,48.60
2023-10-07T15:16:19.745Z,48.33
2023-10-07T15:18:50.798Z,48.59
2023-10-07T15:21:19.248Z,48.84
2023-10-07T15:23:48.539Z,49.08
2023-10-07T15:26:19.235Z,48.29
2023-10-07T15:28:49.084Z,48.98
2023-10-07T15:31:23.726Z,48.36
2023-10-07T15:33:56.472Z,48.91
2023-10-07T15:36:25.673Z,48.57
2023-10-07T15:38:55.359Z,48.82
2023-10-07T15:41:23.292Z,48.67
2023-10-07T15:43:52.494Z,48.53
2023-10-07T15:46:20.622Z,49.23
2023-10-07T15:48:48.773Z,48.78
2023-10-07T15:51:17.374Z,49.46
2023-10-07T15:53:46.000Z,49.55
2023-10-07T15:56:19.819Z,49.00
2023-10-07T15:58:48.653Z,49.42
2023-10-07T16:01:17.031Z,49.13
2023-10-07T16:03:45.413Z,49.08
2023-10-07T16:06:16.075Z,49.03
2023-10-07T16:08:45.808Z,49.03
2023-10-07T16:11:19.931Z,49.23
2023-10-07T16:13:48.129Z,49.37
2023-10-07T16:16:17.426Z,49.46
2023-10-07T16:18:46.995Z,49.21
2023-10-07T16:21:17.047Z,49.22
2023-10-07T16:23:45.295Z,49.54
2023-10-07T16:26:15.131Z,49.62
2023-10-07T16:28:45.855Z,49.08
2023-10-07T16:31:13.956Z,49.69
2023-10-07T16:33:42.033Z,49.50
2023-10-07T16:36:11.059Z,49.24
2023-10-07T16:38:40.886Z,49.50
2023-10-07T16:41:09.422Z,49.52
2023-10-07T16:43:38.358Z,49.80
2023-10-07T16:46:08.054Z,50.03
2023-10-07T16:48:36.546Z,49.81
2023-10-07T16:51:06.698Z,49.57
2023-10-07T16:53:35.816Z,49.94
2023-10-07T16:56:06.560Z,49.72
2023-10-07T16:58:36.432Z,50.01
2023-10-07T17:01:05.376Z,49.68
2023-10-07T17:03:34.912Z,49.26
2023-10-07T17:06:03.815Z,49.64
2023-10-07T17:08:32.596Z,49.69
2023-10-07T17:11:01.710Z,49.87
2023-10-07T17:13:30.811Z,49.93
2023-10-07T17:15:59.890Z,50.18
2023-10-07T17:18:28.777Z,50.24
2023-10-07T17:21:00.968Z,50.36
2023-10-07T17:23:29.082Z,50.12
2023-10-07T17:25:57.401Z,50.28
2023-10-07T17:28:25.725Z,50.55
2023-10-07T17:30:54.458Z,50.51
2023-10-07T17:33:22.772Z,50.32
2023-10-07T17:35:51.700Z,50.45
2023-10-07T17:38:21.430Z,50.62
2023-10-07T17:40:49.360Z,50.52
2023-10-07T17:43:17.376Z,50.61
2023-10-07T17:45:45.283Z,50.83
2023-10-07T17:48:13.420Z,50.70
2023-10-07T17:50:42.146Z,50.24
2023-10-07T17:53:11.719Z,50.38
2023-10-07T17:55:45.677Z,50.08
2023-10-07T17:58:13.750Z,50.07
2023-10-07T18:00:41.699Z,50.15
2023-10-07T18:03:10.444Z,49.95
2023-10-07T18:05:38.932Z,49.72
2023-10-07T18:08:08.002Z,49.41
2023-10-07T18:10:36.629Z,49.28
2023-10-07T18:13:07.896Z,48.64
2023-10-07T18:15:36.175Z,48.46
2023-10-07T18:18:06.353Z,48.12
2023-10-07T18:20:34.291Z,48.07
2023-10-07T18:23:02.364Z,48.35
2023-10-07T18:25:30.629Z,48.31
2023-10-07T18:27:59.053Z,48.42
2023-10-07T18:30:28.388Z,48.56
2023-10-07T18:32:56.757Z,48.52
2023-10-07T18:35:27.845Z,48.36
2023-10-07T18:37:56.011Z,48.11
2023-10-07T18:40:24.442Z,48.10
2023-10-07T18:42:52.265Z,48.07
2023-10-07T18:45:20.336Z,47.86
2023-10-07T18:47:50.243Z,47.91
2023-10-07T18:50:18.988Z,47.97
2023-10-07T18:52:46.843Z,48.05
2023-10-07T18:55:15.216Z,48.17
2023-10-07T18:57:44.393Z,47.99
2023-10-07T19:00:15.863Z,48.04
2023-10-07T19:02:43.954Z,48.26
2023-10-07T19:05:17.093Z,48.10
2023-10-07T19:07:45.956Z,47.98
2023-10-07T19:10:14.839Z,47.92
2023-10-07T19:12:43.565Z,48.24
2023-10-07T19:15:12.496Z,48.03
2023-10-07T19:17:40.537Z,48.08
2023-10-07T19:20:10.582Z,48.13
2023-10-07T19:22:42.049Z,48.21
2023-10-07T19:25:12.529Z,48.19
2023-10-07T19:27:40.564Z,48.14
2023-10-07T19:30:11.527Z,48.21
2023-10-07T19:32:44.438Z,48.27
2023-10-07T19:35:13.096Z,48.35
2023-10-07T19:37:42.444Z,48.05
2023-10-07T19:40:11.991Z,48.21
2023-10-07T19:42:39.600Z,48.32
2023-10-07T19:45:11.163Z,48.09
2023-10-07T19:47:39.991Z,47.97
2023-10-07T19:50:08.947Z,48.11
2023-10-07T19:52:36.828Z,48.29
2023-10-07T19:55:07.655Z,48.43
2023-10-07T19:57:36.225Z,48.39
2023-10-07T20:00:04.919Z,48.53
2023-10-07T20:02:33.369Z,48.62
2023-10-07T20:05:01.427Z,48.73
2023-10-07T20:07:29.326Z,48.63
2023-10-07T20:09:57.536Z,48.75
2023-10-07T20:12:26.788Z,48.78
2023-10-07T20:14:55.250Z,48.75
2023-10-07T20:17:23.807Z,48.83
2023-10-07T20:19:52.393Z,48.91
2023-10-07T20:22:20.545Z,48.75
2023-10-07T20:24:48.877Z,48.82
2023-10-07T20:27:16.975Z,49.09
2023-10-07T20:29:46.351Z,49.07
2023-10-07T20:32:14.587Z,49.20
2023-10-07T20:34:42.470Z,49.14
2023-10-07T20:37:12.017Z,49.16
2023-10-07T20:39:40.365Z,49.11
2023-10-07T20:42:08.181Z,49.21
2023-10-07T20:44:36.188Z,49.15
2023-10-07T20:47:08.930Z,49.16
2023-10-07T20:49:38.422Z,49.32
2023-10-07T20:52:06.524Z,49.27
2023-10-07T20:54:34.810Z,49.47
2023-10-07T20:57:02.694Z,49.47
2023-10-07T20:59:30.752Z,49.45
2023-10-07T21:02:00.646Z,49.15
2023-10-07T21:04:30.131Z,49.21
2023-10-07T21:06:57.905Z,49.34
2023-10-07T21:09:26.229Z,49.17
2023-10-07T21:11:54.149Z,49.01
2023-10-07T21:14:22.046Z,48.93
2023-10-07T21:16:50.085Z,48.96
2023-10-07T21:19:17.957Z,48.81
2023-10-07T21:21:47.868Z,48.62
2023-10-07T21:24:15.979Z,48.59
2023-10-07T21:26:43.789Z,48.51
2023-10-07T21:29:11.931Z,48.29
2023-10-07T21:31:40.628Z,48.16
2023-10-07T21:34:10.820Z,48.27
2023-10-07T21:36:38.873Z,48.11
2023-10-07T21:39:11.282Z,47.82
2023-10-07T21:41:39.251Z,47.57
2023-10-07T21:44:07.629Z,47.79
2023-10-07T21:46:36.702Z,47.50
2023-10-07T21:49:04.620Z,47.18
2023-10-07T21:51:32.459Z,46.96
2023-10-07T21:54:00.323Z,46.62
2023-10-07T21:56:29.690Z,46.73
2023-10-07T21:58:57.543Z,46.34
2023-10-07T22:01:26.119Z,46.05
2023-10-07T22:03:54.047Z,46.43
2023-10-07T22:06:24.932Z,46.23
2023-10-07T22:08:53.557Z,45.96
2023-10-07T22:11:21.695Z,45.98
2023-10-07T22:13:51.007Z,45.96
2023-10-07T22:16:19.478Z,46.00
2023-10-07T22:18:47.363Z,45.85
2023-10-07T22:21:15.206Z,45.73
2023-10-07T22:23:45.384Z,45.50
2023-10-07T22:26:20.281Z,45.30
2023-10-07T22:28:49.038Z,45.22
2023-10-07T22:31:18.774Z,45.26
2023-10-07T22:33:46.617Z,44.76
2023-10-07T22:36:19.628Z,45.16
2023-10-07T22:38:54.526Z,44.88
2023-10-07T22:41:27.914Z,45.04
2023-10-07T22:44:01.556Z,44.67
2023-10-07T22:46:32.918Z,44.74
2023-10-07T22:49:01.456Z,44.28
2023-10-07T22:51:29.304Z,44.45
2023-10-07T22:54:05.222Z,44.23
2023-10-07T22:56:33.830Z,44.07
2023-10-07T22:59:07.049Z,44.62
2023-10-07T23:01:44.443Z,44.24
2023-10-07T23:04:16.785Z,44.15
2023-10-07T23:06:57.476Z,43.94
2023-10-07T23:09:30.416Z,44.06
2023-10-07T23:12:04.145Z,43.95
2023-10-07T23:14:38.063Z,44.07
2023-10-07T23:17:07.272Z,44.48
2023-10-07T23:19:43.323Z,44.07
2023-10-07T23:22:25.012Z,43.86
2023-10-07T23:25:15.455Z,43.76
2023-10-07T23:27:45.701Z,44.00
2023-10-07T23:30:27.604Z,44.19
2023-10-07T23:33:01.870Z,44.27
2023-10-07T23:35:33.862Z,44.05
2023-10-07T23:38:09.616Z,44.58
2023-10-07T23:40:39.078Z,44.58
2023-10-07T23:43:10.908Z,44.19
2023-10-07T23:45:45.367Z,44.22
2023-10-07T23:48:19.529Z,44.54
2023-10-07T23:50:58.138Z,44.39
2023-10-07T23:53:31.127Z,44.30
2023-10-07T23:56:08.778Z,44.34
2023-10-07T23:58:44.050Z,44.50
